Time;durP1;ratioP1;P1;durP2;ratioP2;P2;SDS_P1;SDS_P2;PMS_P1;PMS_P2;Temp;Humidity;BMP_temperature;BMP_pressure;BME280_temperature;BME280_humidity;BME280_pressure;Samples;Min_cycle;Max_cycle;Signal;HPM_P1;HPM_P2
2022/06/28 00:00:29;;;;;;;5.75;1.00;;;16.20;99.90;;;;;;4887471;29;20025;-75
2022/06/28 00:02:55;;;;;;;5.00;1.23;;;16.10;99.90;;;;;;4886959;29;20061;-75
2022/06/28 00:05:21;;;;;;;4.25;0.90;;;16.10;99.90;;;;;;4886199;29;20220;-75
2022/06/28 00:07:47;;;;;;;4.35;0.82;;;16.10;99.90;;;;;;4887156;29;20278;-74
2022/06/28 00:10:14;;;;;;;7.45;1.33;;;16.10;99.90;;;;;;4887122;29;20189;-75
2022/06/28 00:12:41;;;;;;;5.22;0.90;;;16.10;99.90;;;;;;4887228;29;20040;-75
2022/06/28 00:17:54;;;;;;;7.78;1.05;;;16.00;99.90;;;;;;4886936;29;20032;-75
2022/06/28 00:20:20;;;;;;;5.95;1.30;;;15.90;99.90;;;;;;4887092;29;20017;-74
2022/06/28 00:22:46;;;;;;;5.20;1.05;;;15.90;99.90;;;;;;4887043;29;20037;-75
2022/06/28 00:25:12;;;;;;;5.55;0.90;;;15.90;99.90;;;;;;4887234;29;20049;-75
2022/06/28 00:27:38;;;;;;;5.10;0.90;;;15.80;99.90;;;;;;4886968;29;20033;-75
2022/06/28 00:30:05;;;;;;;6.47;1.27;;;15.80;99.90;;;;;;4887025;29;20029;-74
2022/06/28 00:32:32;;;;;;;10.40;1.27;;;15.80;99.90;;;;;;4887256;29;20105;-75
2022/06/28 00:34:57;;;;;;;7.63;1.17;;;15.80;99.90;;;;;;4887045;29;20029;-75
2022/06/28 00:37:23;;;;;;;6.07;1.27;;;15.80;99.90;;;;;;4886992;29;20024;-74
2022/06/28 00:39:49;;;;;;;5.95;1.08;;;15.80;99.90;;;;;;4886558;29;20037;-74
2022/06/28 00:42:14;;;;;;;5.88;1.10;;;15.80;99.90;;;;;;4887135;29;20032;-75
2022/06/28 00:44:40;;;;;;;9.18;1.00;;;15.70;99.90;;;;;;4886810;29;20055;-75
2022/06/28 00:47:07;;;;;;;5.95;1.40;;;15.70;99.90;;;;;;4886432;29;20032;-74
2022/06/28 00:49:33;;;;;;;4.72;1.10;;;15.60;99.90;;;;;;4886557;29;20124;-75
2022/06/28 00:52:02;;;;;;;5.78;1.20;;;15.60;99.90;;;;;;4886917;29;20222;-75
2022/06/28 00:54:29;;;;;;;5.55;1.10;;;15.60;99.90;;;;;;4887000;29;20335;-74
2022/06/28 00:56:55;;;;;;;6.60;1.40;;;15.60;99.90;;;;;;4886661;29;20024;-75
2022/06/28 00:59:21;;;;;;;4.43;0.80;;;15.60;99.90;;;;;;4886903;29;20032;-75
2022/06/28 01:01:47;;;;;;;8.65;1.38;;;15.50;99.90;;;;;;4886724;29;20242;-75
2022/06/28 01:04:12;;;;;;;7.45;1.27;;;15.50;99.90;;;;;;4886504;29;20077;-75
2022/06/28 01:06:39;;;;;;;6.57;0.90;;;15.40;99.90;;;;;;4887968;29;20220;-75
2022/06/28 01:09:05;;;;;;;4.40;1.20;;;15.40;99.90;;;;;;4889966;29;20084;-74
2022/06/28 01:11:32;;;;;;;9.77;1.83;;;15.40;99.90;;;;;;4890024;29;20339;-74
2022/06/28 01:14:00;;;;;;;4.82;1.02;;;15.40;99.90;;;;;;4890174;29;20021;-74
2022/06/28 01:16:27;;;;;;;3.75;1.15;;;15.40;99.90;;;;;;4889817;29;20249;-75
2022/06/28 01:18:53;;;;;;;7.25;1.13;;;15.40;99.90;;;;;;4889882;29;20108;-75
2022/06/28 01:21:20;;;;;;;3.78;1.13;;;15.30;99.90;;;;;;4888357;29;20221;-74
2022/06/28 01:23:47;;;;;;;4.45;1.10;;;15.30;99.90;;;;;;4889332;29;20049;-74
2022/06/28 01:26:14;;;;;;;4.20;1.25;;;15.30;99.90;;;;;;4889908;29;20017;-74
2022/06/28 01:28:41;;;;;;;7.38;1.38;;;15.20;99.90;;;;;;4889427;29;20092;-74
2022/06/28 01:31:07;;;;;;;4.22;1.08;;;15.20;99.90;;;;;;4889708;29;20033;-74
2022/06/28 01:33:36;;;;;;;3.80;1.00;;;15.10;99.90;;;;;;4889816;29;20096;-75
2022/06/28 01:36:06;;;;;;;6.20;1.25;;;15.10;99.90;;;;;;4889659;29;20020;-74
2022/06/28 01:38:33;;;;;;;4.28;0.90;;;15.10;99.90;;;;;;4889413;29;20395;-74
2022/06/28 01:41:00;;;;;;;8.95;1.77;;;15.10;99.90;;;;;;4889249;29;20067;-74
2022/06/28 01:43:27;;;;;;;2.75;0.85;;;15.10;99.90;;;;;;4889326;29;20362;-74
2022/06/28 01:45:53;;;;;;;8.23;1.20;;;15.10;99.90;;;;;;4889438;29;20050;-75
2022/06/28 01:48:20;;;;;;;6.55;1.10;;;15.10;99.90;;;;;;4889382;29;20021;-74
2022/06/28 01:50:47;;;;;;;3.15;1.10;;;15.00;99.90;;;;;;4889263;29;20029;-75
2022/06/28 01:53:14;;;;;;;10.35;1.17;;;15.10;99.90;;;;;;4889494;29;20268;-75
2022/06/28 01:55:40;;;;;;;8.02;1.25;;;15.00;99.90;;;;;;4889190;29;20072;-74
2022/06/28 01:58:06;;;;;;;4.03;0.88;;;15.00;99.90;;;;;;4888793;29;20029;-75
2022/06/28 02:00:32;;;;;;;4.78;1.02;;;15.00;99.90;;;;;;4889073;29;20216;-75
2022/06/28 02:02:58;;;;;;;7.43;2.17;;;14.90;99.90;;;;;;4888507;29;20060;-74
2022/06/28 02:05:24;;;;;;;2.97;1.10;;;14.90;99.90;;;;;;4888967;29;20017;-75
2022/06/28 02:07:50;;;;;;;7.68;1.25;;;14.90;99.90;;;;;;4888982;29;20036;-75
2022/06/28 02:10:17;;;;;;;6.80;1.55;;;14.80;99.90;;;;;;4889424;29;20051;-74
2022/06/28 02:12:43;;;;;;;6.40;1.08;;;14.80;99.90;;;;;;4888661;29;20037;-75
2022/06/28 02:15:10;;;;;;;4.85;1.00;;;14.80;99.90;;;;;;4888971;29;20220;-75
2022/06/28 02:17:35;;;;;;;6.82;1.25;;;14.80;99.90;;;;;;4887920;29;20031;-75
2022/06/28 02:20:01;;;;;;;3.47;0.93;;;14.80;99.90;;;;;;4888913;29;20033;-74
2022/06/28 02:22:27;;;;;;;5.95;1.38;;;14.80;99.90;;;;;;4887272;29;20068;-75
2022/06/28 02:24:53;;;;;;;4.80;1.25;;;14.70;99.90;;;;;;4888786;29;20040;-74
2022/06/28 02:27:19;;;;;;;9.63;1.40;;;14.70;99.90;;;;;;4888811;29;20053;-75
2022/06/28 02:29:44;;;;;;;6.22;1.55;;;14.70;99.90;;;;;;4888738;29;20085;-74
2022/06/28 02:32:11;;;;;;;4.82;1.17;;;14.70;99.90;;;;;;4888107;29;20024;-74
2022/06/28 02:40:22;;;;;;;5.70;1.35;;;14.60;99.90;;;;;;4888558;29;20102;-74
2022/06/28 02:42:53;;;;;;;5.65;1.35;;;14.50;99.90;;;;;;4888435;29;20033;-74
2022/06/28 02:45:20;;;;;;;8.75;1.52;;;14.50;99.90;;;;;;4888483;29;20025;-75
2022/06/28 02:47:46;;;;;;;6.65;1.40;;;14.50;99.90;;;;;;4888068;29;20029;-75
2022/06/28 02:50:12;;;;;;;5.07;1.27;;;14.50;99.90;;;;;;4887586;29;20037;-75
2022/06/28 02:52:39;;;;;;;6.20;1.00;;;14.40;99.90;;;;;;4887881;29;20028;-75
2022/06/28 02:55:06;;;;;;;7.72;1.50;;;14.40;99.90;;;;;;4887753;29;20249;-75
2022/06/28 02:57:32;;;;;;;6.68;1.40;;;14.40;99.90;;;;;;4887678;29;20060;-75
2022/06/28 02:59:58;;;;;;;6.95;1.30;;;14.40;99.90;;;;;;4887856;29;20029;-75
2022/06/28 03:02:24;;;;;;;8.13;1.50;;;14.40;99.90;;;;;;4887670;29;20048;-75
2022/06/28 03:04:50;;;;;;;5.93;1.10;;;14.40;99.90;;;;;;4888105;29;20032;-75
2022/06/28 03:07:15;;;;;;;6.97;1.33;;;14.40;99.90;;;;;;4887462;29;20338;-75
2022/06/28 03:09:41;;;;;;;7.15;1.23;;;14.40;99.90;;;;;;4887716;29;20027;-75
2022/06/28 03:12:07;;;;;;;4.15;1.00;;;14.40;99.90;;;;;;4887943;29;20044;-74
2022/06/28 03:14:33;;;;;;;7.65;1.20;;;14.30;99.90;;;;;;4887853;29;20025;-74
2022/06/28 03:16:59;;;;;;;4.68;1.00;;;14.30;99.90;;;;;;4887567;29;20041;-75
2022/06/28 03:19:25;;;;;;;6.30;1.67;;;14.30;99.90;;;;;;4887917;29;20216;-74
2022/06/28 03:21:51;;;;;;;4.38;1.05;;;14.30;99.90;;;;;;4887563;29;20025;-75
2022/06/28 03:24:17;;;;;;;4.35;1.13;;;14.20;99.90;;;;;;4887744;29;20040;-75
2022/06/28 03:26:42;;;;;;;7.47;1.33;;;14.20;99.90;;;;;;4887627;29;20028;-75
2022/06/28 03:29:08;;;;;;;6.75;1.45;;;14.20;99.90;;;;;;4886979;29;20028;-74
2022/06/28 03:31:34;;;;;;;9.63;1.77;;;14.20;99.90;;;;;;4887171;29;20061;-75
2022/06/28 03:33:59;;;;;;;3.55;1.00;;;14.20;99.90;;;;;;4887569;29;20032;-75
2022/06/28 03:36:25;;;;;;;4.65;1.42;;;14.10;99.90;;;;;;4887671;29;20024;-74
2022/06/28 03:38:51;;;;;;;9.82;1.63;;;14.10;99.90;;;;;;4887618;29;20025;-75
2022/06/28 03:41:22;;;;;;;4.03;1.10;;;14.10;99.90;;;;;;4886058;29;20315;-74
2022/06/28 03:43:49;;;;;;;12.63;1.50;;;14.00;99.90;;;;;;4887503;29;20096;-75
2022/06/28 03:46:15;;;;;;;6.82;1.15;;;14.00;99.90;;;;;;4887348;29;20092;-75
2022/06/28 03:48:41;;;;;;;5.60;1.17;;;14.00;99.90;;;;;;4887400;29;20028;-74
2022/06/28 03:51:07;;;;;;;7.20;1.40;;;14.00;99.90;;;;;;4887636;29;20024;-74
2022/06/28 03:53:33;;;;;;;3.90;1.13;;;14.00;99.90;;;;;;4886992;29;20033;-74
2022/06/28 03:55:58;;;;;;;5.78;1.40;;;14.00;99.90;;;;;;4887150;29;20032;-74
2022/06/28 03:58:24;;;;;;;7.93;1.52;;;14.00;99.90;;;;;;4886758;29;20233;-74
2022/06/28 04:00:49;;;;;;;7.78;1.40;;;14.00;99.90;;;;;;4881768;29;20336;-75
2022/06/28 04:03:15;;;;;;;6.53;2.08;;;13.90;99.90;;;;;;4885967;29;20091;-75
2022/06/28 04:05:41;;;;;;;4.03;1.25;;;13.90;99.90;;;;;;4887159;29;20032;-74
2022/06/28 04:08:08;;;;;;;5.88;1.30;;;13.90;99.90;;;;;;4887276;29;20088;-74
2022/06/28 04:10:34;;;;;;;7.38;1.30;;;13.90;99.90;;;;;;4886707;29;20013;-74
2022/06/28 04:12:59;;;;;;;5.65;1.30;;;13.90;99.90;;;;;;4887209;29;20112;-74
2022/06/28 04:15:25;;;;;;;7.88;1.17;;;13.90;99.90;;;;;;4887334;29;20280;-74
2022/06/28 04:17:51;;;;;;;5.95;1.50;;;13.90;99.90;;;;;;4887078;29;20025;-76
2022/06/28 04:20:17;;;;;;;4.55;1.52;;;13.90;99.90;;;;;;4887316;29;20042;-76
2022/06/28 04:22:42;;;;;;;4.90;1.45;;;13.90;99.90;;;;;;4887303;29;20085;-78
2022/06/28 04:25:09;;;;;;;4.22;1.20;;;13.80;99.90;;;;;;4884557;29;20328;-77
2022/06/28 04:27:34;;;;;;;6.28;1.08;;;13.80;99.90;;;;;;4886472;29;20049;-77
2022/06/28 04:30:03;;;;;;;3.08;1.02;;;13.80;99.90;;;;;;4877649;29;20486;-77
2022/06/28 04:32:29;;;;;;;5.38;1.23;;;13.90;99.90;;;;;;4878595;29;20037;-77
2022/06/28 04:34:55;;;;;;;7.13;1.50;;;13.90;99.90;;;;;;4886974;29;20092;-77
2022/06/28 04:37:21;;;;;;;6.65;1.45;;;13.80;99.90;;;;;;4885958;29;20025;-76
2022/06/28 04:39:46;;;;;;;7.88;1.52;;;13.90;99.90;;;;;;4886093;29;20053;-77
2022/06/28 04:42:12;;;;;;;8.75;2.08;;;13.90;99.90;;;;;;4888962;29;20021;-77
2022/06/28 04:44:41;;;;;;;8.45;1.58;;;13.90;99.90;;;;;;4886891;29;20025;-77
2022/06/28 04:47:08;;;;;;;6.78;1.45;;;13.90;99.90;;;;;;4878811;29;20021;-77
2022/06/28 04:49:34;;;;;;;5.80;1.40;;;14.00;99.90;;;;;;4877601;29;20056;-77
2022/06/28 04:51:59;;;;;;;6.10;1.70;;;13.90;99.90;;;;;;4879294;29;20040;-77
2022/06/28 04:54:25;;;;;;;6.60;1.75;;;14.00;99.90;;;;;;4878093;29;20029;-77
2022/06/28 04:56:52;;;;;;;5.32;1.40;;;14.00;99.90;;;;;;4879126;29;20029;-77
2022/06/28 04:59:18;;;;;;;11.02;1.60;;;14.10;99.90;;;;;;4879118;29;20040;-77
2022/06/28 05:01:43;;;;;;;7.50;2.03;;;14.10;99.90;;;;;;4878916;29;20100;-77
2022/06/28 05:04:09;;;;;;;8.30;1.60;;;14.20;99.90;;;;;;4878851;29;20534;-77
2022/06/28 05:06:35;;;;;;;6.07;1.45;;;14.20;99.90;;;;;;4879142;29;20410;-77
2022/06/28 05:09:00;;;;;;;7.50;1.40;;;14.30;99.90;;;;;;4879344;29;20033;-77
2022/06/28 05:11:26;;;;;;;7.65;1.67;;;14.40;99.90;;;;;;4877942;29;20080;-78
2022/06/28 05:13:52;;;;;;;7.38;1.48;;;14.40;99.90;;;;;;4878636;29;20041;-77
2022/06/28 05:16:17;;;;;;;5.90;1.45;;;14.50;99.90;;;;;;4878728;29;20178;-77
2022/06/28 05:18:43;;;;;;;5.97;1.25;;;14.60;99.90;;;;;;4878744;29;20028;-77
2022/06/28 05:21:09;;;;;;;7.85;1.25;;;14.70;99.90;;;;;;4878723;29;20566;-77
2022/06/28 05:23:36;;;;;;;5.55;1.30;;;14.80;99.90;;;;;;4878797;29;20076;-77
2022/06/28 05:26:02;;;;;;;8.48;1.35;;;14.90;99.90;;;;;;4878649;29;20506;-77
2022/06/28 05:28:28;;;;;;;9.45;1.58;;;15.00;99.90;;;;;;4878683;29;20025;-77
2022/06/28 05:30:53;;;;;;;8.15;1.85;;;15.10;99.90;;;;;;4878522;29;20108;-77
2022/06/28 05:33:19;;;;;;;8.52;1.40;;;15.20;99.90;;;;;;4878606;29;20037;-77
2022/06/28 05:35:45;;;;;;;8.82;1.60;;;15.30;99.90;;;;;;4877239;29;20049;-77
2022/06/28 05:38:11;;;;;;;8.45;2.00;;;15.40;99.90;;;;;;4876727;29;20033;-77
2022/06/28 05:40:36;;;;;;;13.70;2.05;;;15.40;99.90;;;;;;4876594;29;20022;-77
2022/06/28 05:43:02;;;;;;;12.57;1.50;;;15.50;99.90;;;;;;4876751;29;20120;-77
2022/06/28 05:45:28;;;;;;;9.18;1.52;;;15.50;99.90;;;;;;4876692;29;20033;-77
2022/06/28 05:47:54;;;;;;;13.85;1.85;;;15.60;99.90;;;;;;4876759;29;20394;-77
2022/06/28 05:50:19;;;;;;;9.82;1.42;;;15.70;99.90;;;;;;4877544;29;20115;-77
2022/06/28 05:52:47;;;;;;;11.52;1.75;;;15.80;99.90;;;;;;4877754;29;20102;-78
2022/06/28 05:55:13;;;;;;;11.00;2.13;;;15.80;99.90;;;;;;4878147;29;20020;-77
2022/06/28 05:57:39;;;;;;;13.35;2.25;;;15.90;99.90;;;;;;4878030;29;20486;-77
2022/06/28 06:00:05;;;;;;;14.50;2.17;;;16.00;99.90;;;;;;4876693;29;20025;-77
2022/06/28 06:02:31;;;;;;;16.58;2.15;;;16.00;99.90;;;;;;4877787;29;20076;-77
2022/06/28 06:04:59;;;;;;;15.90;2.30;;;16.10;99.90;;;;;;4878070;29;20111;-77
2022/06/28 06:07:25;;;;;;;16.92;2.00;;;16.20;99.90;;;;;;4878044;29;20508;-77
2022/06/28 06:09:51;;;;;;;11.02;1.83;;;16.20;99.90;;;;;;4877988;29;20025;-78
2022/06/28 06:12:17;;;;;;;10.65;1.95;;;16.30;99.90;;;;;;4877939;29;20036;-77
2022/06/28 06:14:43;;;;;;;10.13;1.50;;;16.40;99.90;;;;;;4877866;29;20021;-77
2022/06/28 06:17:09;;;;;;;9.98;1.83;;;16.50;99.90;;;;;;4877944;29;20072;-77
2022/06/28 06:19:34;;;;;;;14.88;1.67;;;16.60;99.90;;;;;;4877684;29;20112;-78
2022/06/28 06:22:00;;;;;;;9.33;1.60;;;16.60;99.90;;;;;;4877548;29;20040;-77
2022/06/28 06:24:25;;;;;;;10.32;1.75;;;16.70;99.90;;;;;;4877597;29;20235;-77
2022/06/28 06:26:51;;;;;;;12.75;2.08;;;16.80;99.90;;;;;;4877967;29;20045;-77
2022/06/28 06:29:17;;;;;;;11.65;1.95;;;16.80;99.90;;;;;;4877829;29;20462;-77
2022/06/28 06:31:43;;;;;;;8.20;1.38;;;16.90;99.90;;;;;;4877505;29;20025;-78
2022/06/28 06:34:09;;;;;;;10.40;1.90;;;17.00;99.90;;;;;;4877648;29;20044;-77
2022/06/28 06:36:35;;;;;;;11.43;2.03;;;17.00;99.90;;;;;;4877720;29;20022;-77
2022/06/28 06:39:01;;;;;;;10.23;1.42;;;17.00;99.90;;;;;;4877321;29;20040;-77
2022/06/28 06:41:27;;;;;;;9.05;1.50;;;17.10;99.90;;;;;;4877288;29;20513;-77
2022/06/28 06:43:53;;;;;;;8.02;1.38;;;17.10;99.90;;;;;;4875980;29;20075;-77
2022/06/28 06:46:19;;;;;;;11.80;1.90;;;17.10;99.90;;;;;;4877263;29;20021;-78
2022/06/28 06:48:45;;;;;;;9.73;1.50;;;17.20;99.90;;;;;;4877325;29;20093;-77
2022/06/28 06:51:11;;;;;;;8.23;1.65;;;17.20;99.90;;;;;;4877367;29;20103;-77
2022/06/28 06:53:37;;;;;;;6.50;1.13;;;17.30;99.90;;;;;;4877175;29;20064;-77
2022/06/28 06:56:02;;;;;;;6.68;1.17;;;17.30;99.90;;;;;;4877197;29;20060;-77
2022/06/28 06:58:28;;;;;;;9.20;1.50;;;17.40;99.90;;;;;;4877220;29;20417;-77
2022/06/28 07:00:54;;;;;;;10.20;1.50;;;17.40;99.90;;;;;;4876828;29;20035;-77
2022/06/28 07:03:20;;;;;;;6.38;1.55;;;17.50;99.90;;;;;;4876383;29;20503;-78
2022/06/28 07:05:45;;;;;;;12.07;1.67;;;17.60;99.90;;;;;;4876993;29;20025;-77
2022/06/28 07:08:11;;;;;;;5.50;1.38;;;17.60;99.90;;;;;;4876888;29;20025;-77
2022/06/28 07:10:37;;;;;;;7.50;1.42;;;17.70;99.90;;;;;;4876804;29;20029;-77
2022/06/28 07:13:03;;;;;;;5.72;1.60;;;17.70;99.90;;;;;;4876971;29;20587;-77
2022/06/28 07:15:28;;;;;;;5.50;1.30;;;17.80;99.90;;;;;;4876711;29;20057;-77
2022/06/28 07:17:54;;;;;;;8.27;1.77;;;17.80;99.90;;;;;;4876797;29;20122;-77
2022/06/28 07:20:20;;;;;;;7.32;1.30;;;17.80;99.90;;;;;;4876480;29;20538;-78
2022/06/28 07:22:45;;;;;;;6.72;1.30;;;17.80;99.90;;;;;;4876482;29;20379;-77
2022/06/28 07:25:13;;;;;;;10.50;2.20;;;17.90;99.90;;;;;;4875278;29;20033;-78
2022/06/28 07:27:39;;;;;;;5.82;1.35;;;18.00;99.90;;;;;;4876578;29;20061;-78
2022/06/28 07:30:05;;;;;;;8.45;1.15;;;18.10;99.90;;;;;;4876514;29;20077;-78
2022/06/28 07:32:30;;;;;;;6.47;1.20;;;18.10;99.90;;;;;;4876850;29;20029;-78
2022/06/28 07:34:56;;;;;;;7.70;1.52;;;18.30;99.90;;;;;;4876873;29;20036;-77
2022/06/28 07:37:22;;;;;;;5.28;1.80;;;18.40;99.90;;;;;;4876454;29;20036;-77
2022/06/28 07:39:48;;;;;;;6.50;1.67;;;18.40;99.90;;;;;;4876508;29;20033;-77
2022/06/28 07:42:13;;;;;;;10.43;1.70;;;18.40;99.90;;;;;;4876217;29;20029;-78
2022/06/28 07:44:39;;;;;;;7.57;1.67;;;18.40;99.90;;;;;;4876273;29;20482;-78
2022/06/28 07:47:05;;;;;;;4.18;1.05;;;18.50;99.90;;;;;;4876386;29;20189;-77
2022/06/28 07:54:59;;;;;;;6.25;0.75;;;18.40;99.90;;;;;;4876555;29;20051;-77
2022/06/28 07:57:25;;;;;;;6.47;1.25;;;18.50;99.90;;;;;;4876392;29;20021;-77
2022/06/28 07:59:50;;;;;;;9.25;1.95;;;18.60;99.90;;;;;;4876315;29;20153;-78
2022/06/28 08:02:16;;;;;;;4.25;1.10;;;18.70;99.90;;;;;;4875677;29;20533;-78
2022/06/28 08:04:41;;;;;;;6.57;1.10;;;18.80;99.90;;;;;;4876239;29;20122;-78
2022/06/28 08:07:07;;;;;;;6.60;1.10;;;18.90;99.90;;;;;;4876369;29;20476;-78
2022/06/28 08:09:33;;;;;;;8.07;1.33;;;19.10;99.90;;;;;;4876105;29;20040;-78
2022/06/28 08:11:58;;;;;;;7.65;1.20;;;19.20;99.90;;;;;;4876533;29;20257;-78
2022/06/28 08:14:24;;;;;;;7.20;1.42;;;19.30;99.90;;;;;;4876098;29;20029;-78
2022/06/28 08:16:50;;;;;;;5.97;1.10;;;19.40;99.90;;;;;;4879703;29;20505;-78
2022/06/28 08:19:15;;;;;;;4.82;1.15;;;19.50;99.90;;;;;;4879975;29;20481;-78
2022/06/28 08:21:42;;;;;;;5.03;1.58;;;19.60;99.90;;;;;;4879827;29;20250;-78
2022/06/28 08:24:08;;;;;;;4.07;1.00;;;19.60;99.90;;;;;;4879615;29;20028;-78
2022/06/28 08:26:40;;;;;;;9.32;1.58;;;19.80;99.90;;;;;;4879559;29;20104;-78
2022/06/28 08:29:06;;;;;;;9.70;1.15;;;20.10;99.90;;;;;;4879666;29;20086;-78
2022/06/28 08:31:32;;;;;;;6.72;1.13;;;20.20;99.90;;;;;;4879494;29;20037;-78
2022/06/28 08:33:57;;;;;;;7.18;1.00;;;20.40;99.90;;;;;;4879714;29;20056;-78
2022/06/28 08:36:23;;;;;;;6.72;1.33;;;20.40;99.90;;;;;;4879679;29;20045;-78
2022/06/28 08:38:48;;;;;;;5.38;1.05;;;20.50;99.90;;;;;;4879433;29;20025;-78
2022/06/28 08:41:14;;;;;;;7.55;1.80;;;20.40;99.90;;;;;;4879518;29;20064;-78
2022/06/28 08:43:40;;;;;;;5.25;1.40;;;20.30;99.90;;;;;;4879224;29;20063;-78
2022/06/28 08:46:06;;;;;;;7.97;1.27;;;20.40;99.90;;;;;;4879245;29;20053;-78
2022/06/28 08:48:37;;;;;;;5.57;1.13;;;20.50;99.90;;;;;;4879341;29;20529;-78
2022/06/28 08:51:04;;;;;;;5.07;0.98;;;20.70;99.90;;;;;;4879410;29;20025;-78
2022/06/28 08:53:31;;;;;;;6.07;1.00;;;20.50;99.90;;;;;;4879314;29;20033;-78
2022/06/28 08:55:57;;;;;;;5.55;1.10;;;20.20;99.90;;;;;;4879743;29;20025;-78
2022/06/28 08:58:23;;;;;;;7.68;1.38;;;19.90;99.90;;;;;;4879181;29;20033;-78
2022/06/28 09:00:49;;;;;;;5.40;0.88;;;19.80;99.90;;;;;;4879067;29;20512;-77
2022/06/28 09:03:16;;;;;;;6.50;1.25;;;19.70;99.90;;;;;;4878956;29;20045;-78
2022/06/28 09:05:42;;;;;;;7.88;1.25;;;19.50;99.90;;;;;;4879192;29;20029;-78
2022/06/28 09:08:08;;;;;;;8.18;1.30;;;19.40;99.90;;;;;;4878848;29;20033;-78
2022/06/28 09:10:33;;;;;;;9.38;1.70;;;19.40;99.90;;;;;;4878862;29;20459;-78
2022/06/28 09:13:11;;;;;;;6.50;1.05;;;19.60;99.90;;;;;;4879051;29;20503;-77
2022/06/28 09:15:53;;;;;;;6.07;1.05;;;19.60;99.90;;;;;;4879007;29;20254;-77
2022/06/28 09:18:20;;;;;;;4.75;1.20;;;19.70;99.90;;;;;;4879039;29;20044;-78
2022/06/28 09:20:51;;;;;;;5.28;1.05;;;19.80;99.90;;;;;;4878770;29;20035;-78
2022/06/28 09:23:47;;;;;;;8.25;1.58;;;19.90;99.90;;;;;;4878703;29;20072;-78
2022/06/28 09:26:19;;;;;;;4.97;0.88;;;19.80;99.90;;;;;;4877394;29;20073;-78
2022/06/28 09:28:47;;;;;;;6.07;1.55;;;19.80;99.90;;;;;;4878796;29;20033;-78
2022/06/28 09:31:22;;;;;;;3.60;0.77;;;19.80;99.90;;;;;;4878604;29;20025;-78
2022/06/28 09:34:00;;;;;;;6.90;0.90;;;19.80;99.90;;;;;;4878762;29;20057;-78
2022/06/28 09:36:26;;;;;;;4.07;1.30;;;19.70;99.90;;;;;;4878645;29;20041;-78
2022/06/28 09:38:55;;;;;;;2.67;0.80;;;19.80;99.90;;;;;;4878540;29;20401;-78
2022/06/28 09:41:25;;;;;;;2.80;1.00;;;19.90;99.90;;;;;;4878533;29;20033;-78
2022/06/28 09:44:00;;;;;;;5.80;0.75;;;19.90;99.90;;;;;;4878232;29;20060;-78
2022/06/28 09:46:29;;;;;;;5.43;1.13;;;20.10;99.90;;;;;;4878231;29;20028;-78
2022/06/28 09:48:57;;;;;;;5.40;1.00;;;20.10;99.90;;;;;;4878369;29;20100;-78
2022/06/28 09:51:24;;;;;;;3.78;1.10;;;20.20;99.90;;;;;;4878249;29;20490;-78
2022/06/28 09:54:04;;;;;;;3.40;0.85;;;20.50;99.90;;;;;;4878766;29;20096;-78
2022/06/28 09:56:43;;;;;;;3.97;0.93;;;20.50;99.90;;;;;;4878248;29;20123;-77
2022/06/28 09:59:10;;;;;;;4.97;0.70;;;20.40;99.90;;;;;;4878392;29;20032;-77
2022/06/28 10:01:36;;;;;;;5.32;1.23;;;20.50;99.40;;;;;;4877961;29;20029;-78
2022/06/28 10:04:03;;;;;;;4.75;0.73;;;20.50;99.50;;;;;;4877901;29;20049;-78
2022/06/28 10:06:29;;;;;;;4.25;0.75;;;20.60;97.40;;;;;;4878002;29;20029;-78
2022/06/28 10:08:54;;;;;;;6.65;1.00;;;20.60;97.20;;;;;;4877750;29;20033;-77
2022/06/28 10:11:20;;;;;;;3.53;0.70;;;20.60;97.70;;;;;;4877903;29;20043;-78
2022/06/28 10:16:49;;;;;;;4.40;1.00;;;20.50;98.90;;;;;;4874881;29;20520;-77
2022/06/28 10:19:18;;;;;;;3.30;0.88;;;20.50;99.40;;;;;;4874462;29;20029;-78
2022/06/28 10:21:52;;;;;;;4.60;0.70;;;20.40;98.90;;;;;;4874930;29;20100;-77
2022/06/28 10:24:19;;;;;;;4.50;1.20;;;20.20;99.90;;;;;;4874265;29;20379;-77
2022/06/28 10:27:05;;;;;;;3.45;0.95;;;20.20;99.60;;;;;;4874440;29;20052;-77
2022/06/28 10:29:31;;;;;;;4.15;1.00;;;20.10;99.90;;;;;;4874554;29;20403;-76
2022/06/28 10:31:57;;;;;;;6.63;1.20;;;20.30;99.90;;;;;;4874409;29;20083;-77
2022/06/28 10:34:53;;;;;;;6.78;1.55;;;20.20;99.90;;;;;;4879021;29;20035;-77
2022/06/28 10:37:21;;;;;;;6.35;1.10;;;20.40;99.10;;;;;;4879941;29;20044;-77
2022/06/28 10:39:47;;;;;;;8.02;1.30;;;20.40;99.90;;;;;;4898938;29;20118;-77
2022/06/28 10:42:13;;;;;;;4.88;1.38;;;20.40;99.90;;;;;;4898190;29;20125;-78
2022/06/28 10:44:39;;;;;;;4.43;1.00;;;20.50;99.90;;;;;;4888285;29;20397;-77
2022/06/28 10:47:12;;;;;;;7.07;1.15;;;20.60;99.90;;;;;;4876433;29;20061;-77
2022/06/28 10:49:46;;;;;;;4.55;1.40;;;20.40;99.90;;;;;;4887029;29;20025;-77
2022/06/28 10:52:14;;;;;;;;;;;20.20;99.90;;;;;;4902460;29;20227;-77
2022/06/28 10:55:09;;;;;;;6.70;1.10;;;20.20;99.90;;;;;;4890032;29;19907;-77
2022/06/28 10:57:36;;;;;;;7.57;1.10;;;20.40;99.90;;;;;;4892845;29;20024;-77
2022/06/28 11:00:10;;;;;;;8.27;1.10;;;20.50;99.90;;;;;;4892361;29;20095;-77
2022/06/28 11:02:59;;;;;;;5.95;1.10;;;20.70;99.90;;;;;;4892251;29;20501;-77
2022/06/28 11:05:43;;;;;;;7.50;1.30;;;20.70;99.90;;;;;;4892323;29;20486;-76
2022/06/28 11:08:11;;;;;;;6.57;1.15;;;20.80;99.90;;;;;;4892330;29;20055;-76
2022/06/28 11:10:37;;;;;;;3.65;0.88;;;20.90;99.90;;;;;;4892488;29;20059;-78
2022/06/28 11:13:20;;;;;;;6.38;1.35;;;20.90;99.90;;;;;;4892629;29;20386;-77
2022/06/28 11:15:45;;;;;;;4.43;0.80;;;21.10;99.90;;;;;;4891958;29;20104;-77
2022/06/28 11:18:16;;;;;;;10.88;1.50;;;21.10;99.90;;;;;;4892210;29;20474;-77
2022/06/28 11:20:42;;;;;;;9.35;1.90;;;20.90;99.90;;;;;;4891925;29;20416;-77
2022/06/28 11:23:08;;;;;;;5.15;1.13;;;21.00;99.90;;;;;;4876603;29;20041;-77
2022/06/28 11:28:21;;;;;;;4.80;1.20;;;21.20;99.90;;;;;;4873388;29;20085;-77
2022/06/28 11:30:47;;;;;;;6.15;1.13;;;21.20;99.90;;;;;;4879482;29;20033;-78
2022/06/28 11:33:16;;;;;;;7.10;1.25;;;21.30;99.90;;;;;;4875771;29;20028;-77
2022/06/28 11:35:42;;;;;;;5.80;1.25;;;21.40;99.90;;;;;;4874461;29;20033;-77
2022/06/28 11:38:14;;;;;;;7.35;1.25;;;21.30;99.90;;;;;;4876047;29;20025;-77
2022/06/28 11:40:52;;;;;;;6.78;1.10;;;21.30;99.90;;;;;;4876442;29;20036;-78
2022/06/28 11:43:25;;;;;;;6.30;1.40;;;21.30;99.90;;;;;;4876211;29;20446;-77
2022/06/28 11:45:52;;;;;;;5.15;1.17;;;21.30;99.90;;;;;;4876400;29;20447;-78
2022/06/28 11:48:21;;;;;;;5.88;1.13;;;21.40;99.90;;;;;;4876516;29;20037;-77
2022/06/28 11:50:51;;;;;;;4.93;0.85;;;21.70;99.90;;;;;;4875939;29;20033;-77
2022/06/28 11:53:19;;;;;;;5.70;0.90;;;21.80;99.90;;;;;;4875681;29;20481;-77
2022/06/28 11:55:50;;;;;;;5.18;1.17;;;21.90;99.90;;;;;;4875968;29;20017;-77
2022/06/28 11:58:33;;;;;;;4.97;1.42;;;22.10;99.20;;;;;;4876378;29;20036;-77
2022/06/28 12:01:04;;;;;;;5.60;1.02;;;21.90;99.20;;;;;;4876095;29;20040;-78
2022/06/28 12:03:32;;;;;;;5.60;1.60;;;21.80;99.20;;;;;;4875892;29;20132;-77
2022/06/28 12:06:00;;;;;;;5.20;1.10;;;22.00;98.90;;;;;;4876359;29;20573;-78
2022/06/28 12:08:47;;;;;;;5.18;1.23;;;22.10;98.40;;;;;;4876233;29;20497;-78
2022/06/28 12:11:24;;;;;;;5.15;1.20;;;22.00;98.20;;;;;;4876465;29;20040;-77
2022/06/28 12:13:57;;;;;;;8.85;1.23;;;21.90;97.80;;;;;;4876524;29;20029;-78
2022/06/28 12:16:23;;;;;;;6.43;1.30;;;21.90;97.70;;;;;;4876131;29;20033;-78
2022/06/28 12:18:53;;;;;;;8.80;1.10;;;22.20;98.20;;;;;;4876232;29;20048;-77
2022/06/28 12:21:19;;;;;;;3.92;0.98;;;22.10;96.90;;;;;;4875911;29;20103;-78
2022/06/28 12:23:53;;;;;;;4.63;1.02;;;22.30;96.50;;;;;;4875940;29;20527;-78
2022/06/28 12:26:20;;;;;;;6.03;0.95;;;22.30;96.50;;;;;;4876049;29;20459;-77
2022/06/28 12:28:46;;;;;;;4.80;0.90;;;22.20;95.60;;;;;;4876156;29;20056;-78
2022/06/28 12:31:11;;;;;;;4.75;0.90;;;22.10;95.30;;;;;;4875982;29;20060;-78
2022/06/28 12:33:37;;;;;;;3.80;1.08;;;22.00;94.40;;;;;;4876153;29;20041;-78
2022/06/28 12:36:03;;;;;;;5.50;0.93;;;22.00;94.50;;;;;;4876090;29;20039;-78
2022/06/28 12:38:29;;;;;;;3.05;0.75;;;22.40;94.00;;;;;;4875813;29;20482;-78
2022/06/28 12:40:56;;;;;;;2.20;0.73;;;22.40;93.50;;;;;;4875826;29;20486;-78
2022/06/28 12:43:22;;;;;;;3.40;0.75;;;22.50;92.20;;;;;;4875775;29;20186;-78
2022/06/28 12:45:47;;;;;;;4.68;1.02;;;22.60;92.60;;;;;;4876070;29;20190;-78
2022/06/28 12:48:13;;;;;;;1.58;0.70;;;22.80;92.50;;;;;;4876119;29;20037;-78
2022/06/28 12:50:39;;;;;;;3.35;0.80;;;22.70;92.30;;;;;;4875816;29;20121;-78
2022/06/28 12:53:06;;;;;;;4.05;0.73;;;22.90;92.90;;;;;;4876048;29;20055;-78
2022/06/28 12:55:32;;;;;;;3.95;0.98;;;23.20;93.60;;;;;;4875879;29;20080;-78
2022/06/28 12:57:57;;;;;;;4.63;1.00;;;23.50;93.60;;;;;;4875716;29;20029;-78
2022/06/28 13:00:23;;;;;;;4.45;1.00;;;23.60;93.30;;;;;;4875521;29;20089;-78
2022/06/28 13:02:49;;;;;;;6.10;1.35;;;24.00;93.70;;;;;;4877428;29;20045;-78
2022/06/28 13:05:15;;;;;;;8.50;1.08;;;24.00;93.70;;;;;;4879091;29;20021;-78